Little Rock, AR

5:32 AM CDT on May 07, 2015 (GMT -0500)
Adams | | Change Station
CLOSE
Current Station
Airport
Location: Little Rock,
Elevation: 259 ft
Nearby Weather Stations

Elev 259 ft 34.73 °N, 92.24 °W | Updated 39 minutes ago

Overcast
Overcast
64 °F
Feels Like 64 °F
N
0
Wind Variable Wind from North

Today
High -- | Low -- °F
--% Chance of Precip.
Yesterday
High -- | Low -- °F
Precip. -- in
6:13 AM 7:58 PM
Waning Gibbous, 89% visible
Pressure 30.00 in
Visibility 10.0 miles
Clouds Scattered Clouds 7000 ft
Overcast 12000 ft
Dew Point 58 °F
Humidity 80%
Rainfall 0.00 in
Snow Depth Not available.
UV 0 out of 12
Pollen 8.70 out of 12
Air Quality Not available.
Flu Activity No Activity
METAR KLIT 070953Z 00000KT 10SM SCT070 OVC120 18/14 A3000 RMK AO2 SLP158 T01780144

More Conditions Fewer Conditions

Pressure 30.00 in
Visibility 10.0 miles
Clouds Scattered Clouds 7000 ft
Overcast 12000 ft
Dew Point 58 °F
Humidity 80%
Rainfall 0.00 in
Snow Depth Not available.
UV 0 out of 12
Pollen 8.70 out of 12
Air Quality Not available.
Flu Activity No Activity
METAR KLIT 070953Z 00000KT 10SM SCT070 OVC120 18/14 A3000 RMK AO2 SLP158 T01780144

More Conditions Fewer Conditions

10-Day Weather Forecast

Almanac

Astronomy

May. 07, 2015 Rise Set
Actual Time
Civil Twilight
Nautical Twilight
Astronomical Twilight
Moon
Length of Visible Light
Length of Day
Tomorrow will be .
, % of the Moon is Illuminated

Today's Extremes

State Highs State Lows

Community

WunderPhotos

Upload Photos

1,819,137 photos uploaded!

WunderBlogs® & News

Nearby

Air Quality

  Air Quality AQ Index Pollutant
Not available.

Snow Depth

Station Depth Elevation

Earthquake Activity

City Distance Mag. Time & Date
Minimum magnitude displayed is 2.5.

Coastal Water Temperatures

Place Temperature

Stations

Nearby Weather Stations

Station Location Temp. Windchill Dew Point Humidity Wind Precip. Elev Updated Type